Time;durP1;ratioP1;P1;durP2;ratioP2;P2;SDS_P1;SDS_P2;PMS_P1;PMS_P2;Temp;Humidity;BMP_temperature;BMP_pressure;BME280_temperature;BME280_humidity;BME280_pressure;Samples;Min_cycle;Max_cycle;Signal;HPM_P1;HPM_P2
2021/11/23 00:00:31;;;;;;;12.20;7.13;;;;;;;;;;4996396;28;20037;-55
2021/11/23 00:02:57;;;;;;;12.80;6.70;;;;;;;;;;5001130;28;20423;-56
2021/11/23 00:05:23;;;;;;;12.60;6.57;;;;;;;;;;5005592;28;20033;-56
2021/11/23 00:07:49;;;;;;;13.40;7.85;;;;;;;;;;4998835;28;21040;-55
2021/11/23 00:10:14;;;;;;;14.88;8.10;;;;;;;;;;5000909;28;20033;-54
2021/11/23 00:12:40;;;;;;;11.63;6.47;;;;;;;;;;4996738;28;20084;-54
2021/11/23 00:15:05;;;;;;;13.88;7.78;;;;;;;;;;5001089;28;20034;-55
2021/11/23 00:17:31;;;;;;;12.45;7.45;;;;;;;;;;4997541;28;20025;-56
2021/11/23 00:19:57;;;;;;;12.00;7.50;;;;;;;;;;4999646;28;20049;-56
2021/11/23 00:22:23;;;;;;;13.55;6.95;;;;;;;;;;5000801;28;20021;-55
2021/11/23 00:24:48;;;;;;;14.60;7.50;;;;;;;;;;5001845;28;20034;-56
2021/11/23 00:27:14;;;;;;;14.30;8.15;;;;;;;;;;5000739;28;20022;-55
2021/11/23 00:29:40;;;;;;;14.00;7.78;;;;;;;;;;4997715;28;20026;-55
2021/11/23 00:32:05;;;;;;;12.55;7.25;;;;;;;;;;5000639;28;20030;-56
2021/11/23 00:34:31;;;;;;;14.30;7.18;;;;;;;;;;5004699;28;20101;-56
2021/11/23 00:36:58;;;;;;;17.75;7.80;;;;;;;;;;5005642;28;20033;-54
2021/11/23 00:39:24;;;;;;;18.08;8.85;;;;;;;;;;5001815;28;20053;-56
2021/11/23 00:41:50;;;;;;;16.05;8.00;;;;;;;;;;4997967;28;20030;-55
2021/11/23 00:44:19;;;;;;;13.80;7.25;;;;;;;;;;5004237;28;20026;-54
2021/11/23 00:46:45;;;;;;;12.63;6.65;;;;;;;;;;5005717;28;20109;-56
2021/11/23 00:49:12;;;;;;;14.57;7.13;;;;;;;;;;5000197;28;20026;-55
2021/11/23 00:51:38;;;;;;;18.30;8.38;;;;;;;;;;5004111;28;20060;-56
2021/11/23 00:54:04;;;;;;;13.70;7.38;;;;;;;;;;5000627;28;20469;-55
2021/11/23 00:56:29;;;;;;;16.42;7.05;;;;;;;;;;4997386;28;20040;-55
2021/11/23 00:58:55;;;;;;;16.17;7.75;;;;;;;;;;5004406;28;20045;-55
2021/11/23 01:01:21;;;;;;;14.23;7.28;;;;;;;;;;5002143;28;20112;-59
2021/11/23 01:03:46;;;;;;;14.07;6.78;;;;;;;;;;5004357;28;20068;-55
2021/11/23 01:06:12;;;;;;;15.50;7.13;;;;;;;;;;5003679;28;20030;-55
2021/11/23 01:08:39;;;;;;;12.95;6.10;;;;;;;;;;4998444;28;20250;-56
2021/11/23 01:11:06;;;;;;;15.05;7.20;;;;;;;;;;5001655;28;20231;-58
2021/11/23 01:13:32;;;;;;;12.75;7.05;;;;;;;;;;5002609;28;20145;-55
2021/11/23 01:15:57;;;;;;;13.27;6.75;;;;;;;;;;5005585;28;20128;-56
2021/11/23 01:18:23;;;;;;;15.00;7.95;;;;;;;;;;4999880;28;20145;-55
2021/11/23 01:20:48;;;;;;;16.92;7.65;;;;;;;;;;5002750;28;20037;-56
2021/11/23 01:23:14;;;;;;;17.38;7.18;;;;;;;;;;5000456;28;20034;-55
2021/11/23 01:25:39;;;;;;;14.85;7.43;;;;;;;;;;5000789;28;20140;-55
2021/11/23 01:28:05;;;;;;;15.05;6.78;;;;;;;;;;5001550;28;20036;-56
2021/11/23 01:30:30;;;;;;;12.98;6.45;;;;;;;;;;4999288;28;20034;-55
2021/11/23 01:32:56;;;;;;;12.90;6.25;;;;;;;;;;5002342;28;20038;-55
2021/11/23 01:35:21;;;;;;;13.40;6.50;;;;;;;;;;5004130;28;20096;-57
2021/11/23 01:37:47;;;;;;;13.40;6.78;;;;;;;;;;5002002;28;20030;-55
2021/11/23 01:40:15;;;;;;;12.63;6.63;;;;;;;;;;5001940;28;20412;-55
2021/11/23 01:42:41;;;;;;;12.85;6.70;;;;;;;;;;5003175;28;20397;-54
2021/11/23 01:45:08;;;;;;;12.93;6.50;;;;;;;;;;5003354;28;20034;-55
2021/11/23 01:47:33;;;;;;;14.38;7.13;;;;;;;;;;4997377;28;20018;-55
2021/11/23 01:49:59;;;;;;;15.88;7.93;;;;;;;;;;5000311;28;20113;-53
2021/11/23 01:52:24;;;;;;;14.50;7.78;;;;;;;;;;4997728;28;20037;-54
2021/11/23 01:54:51;;;;;;;13.73;7.18;;;;;;;;;;5005162;28;20018;-55
2021/11/23 01:57:16;;;;;;;13.75;6.63;;;;;;;;;;5004368;28;20442;-55
2021/11/23 01:59:43;;;;;;;14.52;6.80;;;;;;;;;;5006384;28;20034;-54
2021/11/23 02:02:08;;;;;;;13.52;6.65;;;;;;;;;;5004682;28;20561;-56
2021/11/23 02:04:34;;;;;;;15.18;7.28;;;;;;;;;;5004114;28;20033;-56
2021/11/23 02:06:59;;;;;;;14.73;6.57;;;;;;;;;;5000911;28;20033;-56
2021/11/23 02:09:25;;;;;;;13.75;7.28;;;;;;;;;;5005206;28;20083;-56
2021/11/23 02:11:52;;;;;;;14.68;6.55;;;;;;;;;;5004085;28;20108;-55
2021/11/23 02:14:19;;;;;;;11.18;6.38;;;;;;;;;;5002250;28;20017;-54
2021/11/23 02:16:44;;;;;;;12.32;6.50;;;;;;;;;;5001150;28;20030;-54
2021/11/23 02:19:10;;;;;;;13.15;7.13;;;;;;;;;;4999819;28;20029;-56
2021/11/23 02:21:35;;;;;;;14.10;6.50;;;;;;;;;;5002023;28;20041;-55
2021/11/23 02:24:02;;;;;;;14.25;7.10;;;;;;;;;;5001299;28;20045;-55
2021/11/23 02:26:28;;;;;;;13.30;6.20;;;;;;;;;;5001212;28;20037;-54
2021/11/23 02:28:53;;;;;;;14.68;6.45;;;;;;;;;;5002007;28;20377;-56
2021/11/23 02:31:19;;;;;;;11.70;5.95;;;;;;;;;;4999950;28;20409;-56
2021/11/23 02:33:44;;;;;;;13.68;6.57;;;;;;;;;;5003296;28;20079;-56
2021/11/23 02:36:11;;;;;;;13.93;6.32;;;;;;;;;;5001108;28;20109;-55
2021/11/23 02:38:38;;;;;;;12.88;6.63;;;;;;;;;;4997846;28;20108;-54
2021/11/23 02:41:05;;;;;;;12.95;6.75;;;;;;;;;;5000797;28;20520;-55
2021/11/23 02:43:31;;;;;;;13.93;5.95;;;;;;;;;;5003266;28;20099;-56
2021/11/23 02:45:57;;;;;;;13.70;7.20;;;;;;;;;;5001031;28;20037;-55
2021/11/23 02:48:23;;;;;;;14.10;6.25;;;;;;;;;;5000363;28;20140;-54
2021/11/23 02:50:56;;;;;;;13.65;6.32;;;;;;;;;;4999068;28;20057;-53
2021/11/23 02:53:23;;;;;;;12.43;6.57;;;;;;;;;;5000902;28;20026;-57
2021/11/23 02:55:50;;;;;;;15.32;7.13;;;;;;;;;;4999019;28;20349;-56
2021/11/23 02:58:15;;;;;;;15.13;7.30;;;;;;;;;;4998787;28;20492;-56
2021/11/23 03:00:41;;;;;;;14.38;6.53;;;;;;;;;;5002255;28;20112;-54
2021/11/23 03:03:06;;;;;;;16.23;6.93;;;;;;;;;;5003247;28;20053;-56
2021/11/23 03:05:32;;;;;;;13.50;6.57;;;;;;;;;;4998239;28;20437;-56
2021/11/23 03:07:58;;;;;;;14.48;7.50;;;;;;;;;;5001653;28;20030;-56
2021/11/23 03:10:28;;;;;;;16.55;7.20;;;;;;;;;;4998355;28;20034;-56
2021/11/23 03:12:55;;;;;;;;;;;;;;;;;;4998257;28;20041;-56
2021/11/23 03:15:21;;;;;;;14.30;6.63;;;;;;;;;;4996114;28;20008;-58
2021/11/23 03:17:47;;;;;;;14.00;6.93;;;;;;;;;;5000698;28;20125;-54
2021/11/23 03:20:15;;;;;;;14.20;6.47;;;;;;;;;;4998938;28;20440;-55
2021/11/23 03:22:40;;;;;;;14.50;7.20;;;;;;;;;;5000881;28;20065;-56
2021/11/23 03:25:07;;;;;;;16.33;6.65;;;;;;;;;;5001641;28;20042;-56
2021/11/23 03:27:33;;;;;;;17.23;7.30;;;;;;;;;;4994484;28;20073;-55
2021/11/23 03:29:58;;;;;;;15.48;7.78;;;;;;;;;;4999470;28;20819;-53
2021/11/23 03:32:24;;;;;;;17.30;7.60;;;;;;;;;;5002384;28;20173;-53
2021/11/23 03:34:51;;;;;;;15.90;7.80;;;;;;;;;;5004268;28;20036;-56
2021/11/23 03:37:23;;;;;;;13.15;6.55;;;;;;;;;;4999286;28;20052;-53
2021/11/23 03:39:51;;;;;;;19.50;7.93;;;;;;;;;;4999896;28;20127;-55
2021/11/23 03:42:17;;;;;;;21.27;8.82;;;;;;;;;;5001156;28;20532;-55
2021/11/23 03:44:44;;;;;;;19.25;9.30;;;;;;;;;;5001730;28;20027;-53
2021/11/23 03:47:11;;;;;;;18.17;8.93;;;;;;;;;;5005057;28;20045;-59
2021/11/23 03:49:37;;;;;;;18.52;9.23;;;;;;;;;;5001627;28;20164;-54
2021/11/23 03:52:04;;;;;;;17.95;8.57;;;;;;;;;;5001587;28;20396;-53
2021/11/23 03:54:30;;;;;;;16.13;7.53;;;;;;;;;;5000478;28;20025;-53
2021/11/23 03:56:55;;;;;;;17.13;8.27;;;;;;;;;;5005012;28;20033;-53
2021/11/23 03:59:21;;;;;;;19.30;8.13;;;;;;;;;;5001341;28;20030;-58
2021/11/23 04:01:47;;;;;;;17.02;8.30;;;;;;;;;;5001695;28;20408;-55
2021/11/23 04:04:12;;;;;;;17.55;8.43;;;;;;;;;;5003878;28;20053;-55
2021/11/23 04:06:38;;;;;;;19.13;8.55;;;;;;;;;;5001486;28;20029;-53
2021/11/23 04:09:04;;;;;;;14.73;8.40;;;;;;;;;;5002197;28;20037;-54
2021/11/23 04:11:29;;;;;;;15.95;7.97;;;;;;;;;;5003422;28;20034;-54
2021/11/23 04:13:55;;;;;;;18.45;7.88;;;;;;;;;;5000872;28;20526;-56
2021/11/23 04:16:21;;;;;;;16.73;8.68;;;;;;;;;;4998080;28;20104;-57
2021/11/23 04:18:47;;;;;;;19.17;8.15;;;;;;;;;;5000996;28;20441;-54
2021/11/23 04:21:13;;;;;;;17.83;8.02;;;;;;;;;;5000356;28;20662;-54
2021/11/23 04:23:38;;;;;;;17.77;7.95;;;;;;;;;;4999760;28;20025;-55
2021/11/23 04:26:04;;;;;;;17.13;7.75;;;;;;;;;;5002784;28;20029;-53
2021/11/23 04:28:30;;;;;;;18.98;9.20;;;;;;;;;;4998867;28;20492;-56
2021/11/23 04:30:55;;;;;;;17.55;7.95;;;;;;;;;;5000229;28;20396;-54
2021/11/23 04:33:21;;;;;;;18.20;8.30;;;;;;;;;;5003672;28;20040;-57
2021/11/23 04:35:46;;;;;;;21.48;8.27;;;;;;;;;;5004317;28;20088;-54
2021/11/23 04:38:12;;;;;;;15.57;7.60;;;;;;;;;;5001200;28;20096;-55
2021/11/23 04:40:38;;;;;;;19.02;8.43;;;;;;;;;;5002917;28;20122;-55
2021/11/23 04:43:06;;;;;;;21.35;8.95;;;;;;;;;;5006411;28;20017;-54
2021/11/23 04:45:33;;;;;;;20.23;9.25;;;;;;;;;;4996933;28;20034;-54
2021/11/23 04:47:59;;;;;;;21.42;9.57;;;;;;;;;;5002620;28;20524;-55
2021/11/23 04:50:24;;;;;;;22.13;9.75;;;;;;;;;;5007305;28;20485;-53
2021/11/23 04:52:50;;;;;;;19.33;9.30;;;;;;;;;;5003350;28;20030;-55
2021/11/23 04:55:16;;;;;;;18.50;8.77;;;;;;;;;;4999971;28;20543;-58
2021/11/23 04:57:42;;;;;;;18.42;8.50;;;;;;;;;;5002896;28;20029;-54
2021/11/23 05:00:10;;;;;;;18.85;8.43;;;;;;;;;;4999535;28;20033;-54
2021/11/23 05:02:35;;;;;;;18.27;9.10;;;;;;;;;;5004160;28;20033;-53
2021/11/23 05:05:01;;;;;;;19.63;8.77;;;;;;;;;;5002971;28;20038;-52
2021/11/23 05:07:27;;;;;;;18.75;8.55;;;;;;;;;;4996776;28;20030;-54
2021/11/23 05:09:52;;;;;;;19.08;8.25;;;;;;;;;;4997496;28;20044;-52
2021/11/23 05:12:18;;;;;;;18.10;8.30;;;;;;;;;;5003370;28;20488;-54
2021/11/23 05:14:43;;;;;;;16.08;8.20;;;;;;;;;;4998906;28;20056;-54
2021/11/23 05:17:09;;;;;;;17.58;8.45;;;;;;;;;;5002505;28;20032;-54
2021/11/23 05:19:34;;;;;;;17.95;7.78;;;;;;;;;;4997122;28;20033;-55
2021/11/23 05:21:59;;;;;;;18.92;9.63;;;;;;;;;;4998050;28;20030;-55
2021/11/23 05:24:25;;;;;;;21.38;9.55;;;;;;;;;;5000307;28;20117;-55
2021/11/23 05:26:50;;;;;;;22.02;8.90;;;;;;;;;;5001403;28;20053;-53
2021/11/23 05:29:16;;;;;;;17.95;8.23;;;;;;;;;;5002680;28;20045;-55
2021/11/23 05:31:42;;;;;;;20.75;9.10;;;;;;;;;;5004408;28;20030;-55
2021/11/23 05:34:07;;;;;;;17.70;7.63;;;;;;;;;;5005567;28;20033;-55
2021/11/23 05:36:33;;;;;;;19.70;7.90;;;;;;;;;;5003487;28;20022;-55
2021/11/23 05:38:59;;;;;;;21.02;7.90;;;;;;;;;;5003874;28;20025;-56
2021/11/23 05:41:25;;;;;;;19.40;8.43;;;;;;;;;;5005182;28;20026;-55
2021/11/23 05:43:51;;;;;;;24.98;9.93;;;;;;;;;;5004275;28;20030;-55
2021/11/23 05:46:16;;;;;;;20.13;9.60;;;;;;;;;;5004654;28;20121;-55
2021/11/23 05:48:42;;;;;;;23.77;9.60;;;;;;;;;;5004866;28;20308;-55
2021/11/23 05:51:07;;;;;;;30.35;12.60;;;;;;;;;;5007973;28;20109;-54
2021/11/23 05:53:35;;;;;;;24.73;9.25;;;;;;;;;;4999885;28;20033;-55
2021/11/23 05:56:01;;;;;;;26.35;10.45;;;;;;;;;;5005566;28;20051;-53
2021/11/23 05:58:27;;;;;;;23.63;10.23;;;;;;;;;;5004916;28;20058;-55
2021/11/23 06:00:53;;;;;;;22.48;9.35;;;;;;;;;;5000032;28;20405;-54
2021/11/23 06:03:19;;;;;;;26.30;11.07;;;;;;;;;;5003104;28;20026;-55
2021/11/23 06:05:44;;;;;;;23.95;10.68;;;;;;;;;;5002764;28;20194;-55
2021/11/23 06:08:10;;;;;;;21.15;9.73;;;;;;;;;;5005812;28;20065;-55
2021/11/23 06:10:36;;;;;;;24.35;10.20;;;;;;;;;;5006315;28;20018;-57
2021/11/23 06:13:01;;;;;;;27.10;10.82;;;;;;;;;;5004122;28;20021;-57
2021/11/23 06:15:29;;;;;;;23.30;10.05;;;;;;;;;;5003177;28;20026;-57
2021/11/23 06:18:02;;;;;;;20.45;9.30;;;;;;;;;;5002670;28;20504;-57
2021/11/23 06:20:33;;;;;;;20.52;9.52;;;;;;;;;;5000180;28;20029;-56
2021/11/23 06:23:00;;;;;;;19.83;8.77;;;;;;;;;;5006251;28;20040;-57
2021/11/23 06:25:26;;;;;;;23.67;9.27;;;;;;;;;;5003490;28;20516;-56
2021/11/23 06:27:52;;;;;;;21.20;9.15;;;;;;;;;;5004088;28;20022;-58
2021/11/23 06:30:18;;;;;;;21.42;9.38;;;;;;;;;;5001768;28;20111;-56
2021/11/23 06:32:44;;;;;;;22.70;9.35;;;;;;;;;;5002251;28;20057;-58
2021/11/23 06:35:09;;;;;;;20.42;8.63;;;;;;;;;;5002497;28;20396;-57
2021/11/23 06:37:35;;;;;;;17.92;8.27;;;;;;;;;;4996536;28;20434;-52
2021/11/23 06:40:01;;;;;;;18.88;8.02;;;;;;;;;;5005661;28;20022;-57
2021/11/23 06:42:26;;;;;;;19.90;8.45;;;;;;;;;;5002921;28;20033;-57
2021/11/23 06:44:52;;;;;;;26.80;11.05;;;;;;;;;;5004914;28;20045;-57
2021/11/23 06:47:17;;;;;;;24.40;9.82;;;;;;;;;;5001432;28;20040;-59
2021/11/23 06:49:43;;;;;;;25.30;10.10;;;;;;;;;;5000739;28;20033;-57
2021/11/23 06:52:10;;;;;;;22.17;9.07;;;;;;;;;;5000711;28;20113;-56
2021/11/23 06:54:37;;;;;;;21.95;10.52;;;;;;;;;;5002366;28;20310;-56
2021/11/23 06:57:02;;;;;;;31.75;13.90;;;;;;;;;;5000002;28;20229;-55
2021/11/23 06:59:28;;;;;;;29.23;12.95;;;;;;;;;;5003489;28;20026;-56
2021/11/23 07:01:53;;;;;;;25.27;11.77;;;;;;;;;;5002239;28;20033;-60
2021/11/23 07:04:19;;;;;;;29.42;11.80;;;;;;;;;;5003014;28;20030;-56
2021/11/23 07:06:46;;;;;;;23.55;10.35;;;;;;;;;;5001494;28;20093;-58
2021/11/23 07:09:12;;;;;;;20.98;9.50;;;;;;;;;;5002674;28;20476;-56
2021/11/23 07:11:38;;;;;;;20.45;9.27;;;;;;;;;;5002841;28;20133;-55
2021/11/23 07:14:06;;;;;;;25.73;12.23;;;;;;;;;;5004027;28;20025;-55
2021/11/23 07:16:33;;;;;;;26.85;12.15;;;;;;;;;;4999220;28;20055;-56
2021/11/23 07:18:59;;;;;;;29.35;13.25;;;;;;;;;;5001392;28;20034;-57
2021/11/23 07:21:25;;;;;;;36.97;15.60;;;;;;;;;;4998810;28;20099;-56
2021/11/23 07:23:51;;;;;;;28.60;13.82;;;;;;;;;;5003350;28;20029;-56
2021/11/23 07:26:16;;;;;;;35.00;14.77;;;;;;;;;;5000258;28;20116;-56
2021/11/23 07:28:41;;;;;;;30.35;12.70;;;;;;;;;;5003894;28;20085;-56
2021/11/23 07:31:07;;;;;;;27.50;12.00;;;;;;;;;;5005198;28;20515;-56
2021/11/23 07:33:33;;;;;;;29.65;12.60;;;;;;;;;;5004139;28;20037;-56
2021/11/23 07:35:58;;;;;;;24.20;11.50;;;;;;;;;;5000582;28;20028;-56
2021/11/23 07:38:24;;;;;;;31.65;13.07;;;;;;;;;;4998934;28;20033;-57
2021/11/23 07:40:49;;;;;;;26.17;11.88;;;;;;;;;;5003993;28;20062;-55
2021/11/23 07:43:14;;;;;;;31.92;11.95;;;;;;;;;;5004636;28;20033;-56
2021/11/23 07:45:40;;;;;;;29.20;11.73;;;;;;;;;;5002682;28;20439;-56
2021/11/23 07:48:06;;;;;;;27.67;10.73;;;;;;;;;;5002944;28;20025;-55
2021/11/23 07:50:32;;;;;;;24.45;11.32;;;;;;;;;;4999817;28;20018;-57
2021/11/23 07:52:58;;;;;;;32.22;12.77;;;;;;;;;;5000536;28;20088;-55
2021/11/23 07:55:23;;;;;;;29.63;12.18;;;;;;;;;;5002072;28;20026;-57
2021/11/23 07:57:49;;;;;;;30.80;12.75;;;;;;;;;;4999792;28;20128;-56
2021/11/23 08:00:14;;;;;;;37.78;13.95;;;;;;;;;;5004783;28;20477;-56
2021/11/23 08:02:40;;;;;;;46.70;16.55;;;;;;;;;;5000886;28;20504;-56
2021/11/23 08:05:06;;;;;;;44.88;16.27;;;;;;;;;;5000105;28;20492;-56
2021/11/23 08:07:31;;;;;;;45.60;16.98;;;;;;;;;;5005560;28;20026;-56
2021/11/23 08:09:57;;;;;;;42.70;16.15;;;;;;;;;;5003477;28;20476;-56
2021/11/23 08:12:23;;;;;;;40.72;15.15;;;;;;;;;;4998816;28;20503;-59
2021/11/23 08:14:48;;;;;;;38.42;13.93;;;;;;;;;;5004721;28;20053;-57
2021/11/23 08:17:13;;;;;;;40.35;14.25;;;;;;;;;;5001342;28;20515;-56
2021/11/23 08:19:39;;;;;;;36.05;14.77;;;;;;;;;;5005175;28;20026;-58
2021/11/23 08:22:04;;;;;;;38.05;15.00;;;;;;;;;;5000011;28;20052;-56
2021/11/23 08:24:30;;;;;;;37.33;15.07;;;;;;;;;;4999238;28;20049;-57
2021/11/23 08:26:58;;;;;;;38.50;14.93;;;;;;;;;;4999520;28;20406;-57
2021/11/23 08:29:24;;;;;;;41.15;16.60;;;;;;;;;;4999090;28;20029;-58
2021/11/23 08:31:50;;;;;;;37.92;15.63;;;;;;;;;;4999639;28;20053;-57
2021/11/23 08:34:15;;;;;;;42.70;16.58;;;;;;;;;;5004697;28;20026;-56
2021/11/23 08:36:41;;;;;;;42.35;15.88;;;;;;;;;;5004469;28;20034;-56
2021/11/23 08:39:07;;;;;;;37.85;15.68;;;;;;;;;;5004076;28;20388;-56
2021/11/23 08:41:33;;;;;;;39.65;16.00;;;;;;;;;;4999577;28;20078;-56
2021/11/23 08:43:58;;;;;;;36.40;14.57;;;;;;;;;;5003006;28;20026;-55
2021/11/23 08:46:24;;;;;;;39.10;14.35;;;;;;;;;;4996942;28;20040;-57
2021/11/23 08:48:50;;;;;;;34.40;14.05;;;;;;;;;;5003638;28;20028;-58
2021/11/23 08:51:21;;;;;;;40.67;15.32;;;;;;;;;;5003033;28;20113;-56
2021/11/23 08:53:46;;;;;;;36.97;15.35;;;;;;;;;;5007110;28;20519;-56
2021/11/23 08:56:12;;;;;;;43.30;15.88;;;;;;;;;;4997337;28;20037;-56
2021/11/23 08:58:38;;;;;;;38.95;15.93;;;;;;;;;;4997653;28;20030;-57
2021/11/23 09:01:03;;;;;;;36.95;14.50;;;;;;;;;;5001602;28;20070;-56
2021/11/23 09:03:29;;;;;;;40.00;15.27;;;;;;;;;;5000004;28;20066;-56
2021/11/23 09:05:54;;;;;;;37.05;15.90;;;;;;;;;;5004225;28;20113;-57
2021/11/23 09:08:20;;;;;;;33.95;14.50;;;;;;;;;;5006414;28;20022;-56
2021/11/23 09:10:47;;;;;;;34.08;15.07;;;;;;;;;;5004949;28;20034;-56
2021/11/23 09:13:13;;;;;;;38.38;14.90;;;;;;;;;;5020597;28;20128;-57
2021/11/23 09:15:40;;;;;;;38.95;15.75;;;;;;;;;;5001970;28;20030;-58
2021/11/23 09:18:07;;;;;;;32.65;13.63;;;;;;;;;;5004749;28;20124;-56
2021/11/23 09:20:37;;;;;;;36.88;14.48;;;;;;;;;;5003004;28;20037;-57
2021/11/23 09:23:03;;;;;;;;;;;;;;;;;;5007894;28;20029;-56
2021/11/23 09:25:29;;;;;;;35.47;15.30;;;;;;;;;;5003431;28;20684;-57
2021/11/23 09:27:59;;;;;;;34.17;14.40;;;;;;;;;;5006879;28;20036;-56
2021/11/23 09:30:24;;;;;;;;;;;;;;;;;;5008386;28;20330;-56
2021/11/23 09:32:50;;;;;;;34.05;15.02;;;;;;;;;;5006686;28;19921;-56
2021/11/23 09:35:16;;;;;;;35.55;15.02;;;;;;;;;;5004667;28;20030;-55
2021/11/23 09:37:43;;;;;;;43.67;18.45;;;;;;;;;;5005186;28;20057;-56
2021/11/23 09:40:09;;;;;;;38.85;16.65;;;;;;;;;;5001109;28;20350;-56
2021/11/23 09:42:35;;;;;;;38.83;15.73;;;;;;;;;;5005038;28;20439;-56
2021/11/23 09:45:03;;;;;;;38.63;16.50;;;;;;;;;;5004361;28;20033;-56
2021/11/23 09:47:28;;;;;;;36.42;15.43;;;;;;;;;;5002662;28;20034;-57
2021/11/23 09:49:57;;;;;;;33.65;15.10;;;;;;;;;;5006491;28;20033;-58
2021/11/23 09:52:23;;;;;;;39.15;16.98;;;;;;;;;;5003224;28;20052;-58
2021/11/23 09:54:48;;;;;;;62.60;24.23;;;;;;;;;;5002693;28;20701;-56
2021/11/23 09:57:14;;;;;;;46.70;21.38;;;;;;;;;;5012267;28;20065;-57
2021/11/23 09:59:40;;;;;;;34.22;16.05;;;;;;;;;;5001527;28;20033;-57
2021/11/23 10:02:05;;;;;;;52.05;26.38;;;;;;;;;;5001324;28;20672;-56
2021/11/23 10:04:31;;;;;;;55.15;27.70;;;;;;;;;;5007274;28;20030;-57
2021/11/23 10:07:02;;;;;;;33.25;16.80;;;;;;;;;;5000747;28;20068;-57
2021/11/23 10:09:36;;;;;;;34.70;16.70;;;;;;;;;;5005961;28;20040;-58
2021/11/23 10:12:27;;;;;;;33.80;15.13;;;;;;;;;;5002261;28;20053;-57
2021/11/23 10:15:11;;;;;;;33.17;16.08;;;;;;;;;;5001023;28;20148;-57
2021/11/23 10:17:38;;;;;;;34.97;15.90;;;;;;;;;;5002173;28;20045;-56
2021/11/23 10:20:04;;;;;;;33.53;16.10;;;;;;;;;;5000017;28;20034;-55
2021/11/23 10:22:34;;;;;;;31.42;16.58;;;;;;;;;;4999728;28;20029;-56
2021/11/23 10:25:03;;;;;;;33.40;16.60;;;;;;;;;;4996858;28;20031;-56
2021/11/23 10:27:30;;;;;;;34.40;17.45;;;;;;;;;;5003114;28;20103;-58
2021/11/23 10:29:58;;;;;;;38.88;17.88;;;;;;;;;;5002723;28;20529;-57
2021/11/23 10:32:23;;;;;;;31.83;15.73;;;;;;;;;;5004372;28;20049;-58
2021/11/23 10:34:49;;;;;;;29.52;16.00;;;;;;;;;;5006527;28;20488;-57
2021/11/23 10:37:31;;;;;;;33.00;17.48;;;;;;;;;;5001872;28;20029;-56
2021/11/23 10:40:21;;;;;;;31.55;17.98;;;;;;;;;;5002496;28;20392;-56
2021/11/23 10:42:57;;;;;;;29.20;17.10;;;;;;;;;;5003186;28;20072;-57
2021/11/23 10:45:23;;;;;;;26.90;13.95;;;;;;;;;;5001202;28;20106;-59
2021/11/23 10:47:50;;;;;;;27.40;14.88;;;;;;;;;;5005485;28;20034;-57
2021/11/23 10:50:19;;;;;;;28.45;15.57;;;;;;;;;;5003292;28;20045;-56
2021/11/23 10:52:47;;;;;;;26.17;14.55;;;;;;;;;;5004557;28;20029;-56
2021/11/23 10:55:28;;;;;;;22.85;12.57;;;;;;;;;;5006702;28;20492;-57
2021/11/23 10:57:56;;;;;;;20.13;11.98;;;;;;;;;;5005690;28;20030;-59
2021/11/23 11:00:24;;;;;;;22.83;12.18;;;;;;;;;;5000998;28;20029;-59
2021/11/23 11:02:53;;;;;;;22.48;13.20;;;;;;;;;;5000971;28;20029;-56
2021/11/23 11:05:19;;;;;;;24.48;12.80;;;;;;;;;;5006477;28;20030;-57
2021/11/23 11:07:46;;;;;;;19.23;12.20;;;;;;;;;;5002520;28;20079;-57
2021/11/23 11:10:12;;;;;;;19.27;11.32;;;;;;;;;;5004767;28;20092;-56
2021/11/23 11:12:38;;;;;;;21.23;11.90;;;;;;;;;;5001195;28;20077;-57
2021/11/23 11:15:08;;;;;;;19.98;11.73;;;;;;;;;;5004359;28;20109;-57
2021/11/23 11:17:38;;;;;;;19.42;11.93;;;;;;;;;;5000949;28;20026;-57
2021/11/23 11:20:05;;;;;;;24.27;12.77;;;;;;;;;;5001569;28;20111;-57
2021/11/23 11:22:31;;;;;;;18.00;11.85;;;;;;;;;;5000464;28;20413;-57
2021/11/23 11:27:35;;;;;;;18.63;11.55;;;;;;;;;;5004908;28;20029;-58
2021/11/23 11:30:21;;;;;;;17.95;11.45;;;;;;;;;;5003091;28;20021;-58
2021/11/23 11:33:08;;;;;;;20.60;12.10;;;;;;;;;;4998133;28;20046;-57
2021/11/23 11:35:44;;;;;;;17.45;11.68;;;;;;;;;;4997599;28;20502;-57
2021/11/23 11:40:55;;;;;;;18.05;11.10;;;;;;;;;;5003389;28;20477;-58
2021/11/23 11:43:30;;;;;;;21.92;12.88;;;;;;;;;;5002579;28;20026;-58
2021/11/23 11:45:55;;;;;;;23.02;14.98;;;;;;;;;;5001598;28;20021;-59
2021/11/23 11:48:34;;;;;;;21.50;13.60;;;;;;;;;;5001476;28;20030;-59
2021/11/23 11:51:14;;;;;;;21.70;13.02;;;;;;;;;;5003139;28;20045;-59
2021/11/23 11:53:50;;;;;;;23.38;13.88;;;;;;;;;;4999521;28;20018;-59
2021/11/23 11:56:37;;;;;;;19.95;13.05;;;;;;;;;;5005442;28;20131;-59
2021/11/23 11:59:04;;;;;;;44.85;19.38;;;;;;;;;;5001761;28;20710;-56
2021/11/23 12:01:34;;;;;;;20.67;13.35;;;;;;;;;;4998860;28;20038;-59
2021/11/23 12:04:04;;;;;;;17.25;11.80;;;;;;;;;;5004673;28;20069;-56
2021/11/23 12:06:48;;;;;;;;;;;;;;;;;;4999283;28;20458;-56
2021/11/23 12:09:42;;;;;;;17.75;12.00;;;;;;;;;;5002520;28;19917;-57
2021/11/23 12:12:10;;;;;;;20.13;11.45;;;;;;;;;;5004127;28;20042;-56
2021/11/23 12:14:50;;;;;;;18.90;11.05;;;;;;;;;;5001685;28;20014;-57
2021/11/23 12:17:36;;;;;;;20.83;13.32;;;;;;;;;;5001742;28;20509;-57
2021/11/23 12:20:07;;;;;;;19.58;12.30;;;;;;;;;;5002570;28;20484;-57
2021/11/23 12:22:42;;;;;;;16.75;10.90;;;;;;;;;;5000213;28;20080;-56
2021/11/23 12:25:12;;;;;;;17.00;11.48;;;;;;;;;;5003320;28;20084;-57
2021/11/23 12:27:38;;;;;;;16.60;11.25;;;;;;;;;;5001817;28;20052;-58
2021/11/23 12:30:05;;;;;;;20.45;11.50;;;;;;;;;;4999327;28;20033;-58
2021/11/23 12:32:37;;;;;;;16.85;11.25;;;;;;;;;;5001739;28;23069;-56
2021/11/23 12:35:06;;;;;;;16.77;11.13;;;;;;;;;;5002531;28;20076;-56
2021/11/23 12:37:33;;;;;;;19.10;8.65;;;;;;;;;;4998964;28;20033;-56
2021/11/23 12:40:21;;;;;;;14.57;9.40;;;;;;;;;;5001730;28;20034;-55
2021/11/23 12:42:53;;;;;;;14.35;8.40;;;;;;;;;;5000134;28;20057;-56
2021/11/23 12:45:36;;;;;;;14.52;9.93;;;;;;;;;;4999878;28;20029;-55
2021/11/23 12:48:07;;;;;;;14.98;10.43;;;;;;;;;;4997841;28;20029;-56
2021/11/23 12:50:34;;;;;;;15.25;10.43;;;;;;;;;;4998270;28;20037;-55
2021/11/23 12:53:02;;;;;;;10.93;7.55;;;;;;;;;;5000367;28;20045;-55
2021/11/23 12:55:28;;;;;;;16.30;11.32;;;;;;;;;;5000488;28;20056;-57
2021/11/23 12:57:54;;;;;;;16.83;11.57;;;;;;;;;;5004874;28;20111;-56
2021/11/23 13:00:20;;;;;;;16.33;11.50;;;;;;;;;;5004846;28;20033;-57
2021/11/23 13:02:47;;;;;;;17.63;11.82;;;;;;;;;;4998762;28;20117;-56
2021/11/23 13:05:17;;;;;;;16.08;11.00;;;;;;;;;;4999548;28;20048;-57
2021/11/23 13:07:44;;;;;;;;;;;;;;;;;;4999170;28;20097;-57
2021/11/23 13:10:17;;;;;;;16.23;10.80;;;;;;;;;;5001501;28;19918;-56
2021/11/23 13:12:48;;;;;;;18.15;11.38;;;;;;;;;;4994724;28;20477;-56
2021/11/23 13:15:26;;;;;;;15.50;10.85;;;;;;;;;;4999671;28;20022;-57
2021/11/23 13:18:09;;;;;;;17.45;10.68;;;;;;;;;;5001773;28;20037;-57
2021/11/23 13:20:44;;;;;;;16.05;10.43;;;;;;;;;;5005410;28;20026;-57
2021/11/23 13:23:24;;;;;;;15.40;10.10;;;;;;;;;;4998675;28;20022;-56
2021/11/23 13:26:11;;;;;;;14.50;10.05;;;;;;;;;;4998938;28;20035;-56
2021/11/23 13:28:43;;;;;;;14.43;9.90;;;;;;;;;;4994376;28;20166;-56
2021/11/23 13:31:30;;;;;;;14.52;9.88;;;;;;;;;;5001187;28;20073;-57
2021/11/23 13:34:01;;;;;;;14.13;9.45;;;;;;;;;;5001959;28;20030;-58
2021/11/23 13:36:34;;;;;;;16.38;10.20;;;;;;;;;;5003611;28;20468;-58
2021/11/23 13:38:59;;;;;;;18.50;11.20;;;;;;;;;;5001470;28;20040;-57
2021/11/23 13:41:33;;;;;;;19.67;11.93;;;;;;;;;;5001964;28;20018;-57
2021/11/23 13:44:02;;;;;;;19.92;10.70;;;;;;;;;;4999048;28;20045;-57
2021/11/23 13:46:46;;;;;;;17.13;10.25;;;;;;;;;;5002493;28;20403;-56
2021/11/23 13:49:34;;;;;;;17.70;9.63;;;;;;;;;;5000732;28;20030;-57
2021/11/23 13:52:21;;;;;;;14.43;8.88;;;;;;;;;;5002275;28;20042;-59
2021/11/23 13:54:52;;;;;;;17.20;9.75;;;;;;;;;;5004346;28;20022;-56
2021/11/23 13:57:20;;;;;;;15.73;9.65;;;;;;;;;;5002561;28;20117;-57
2021/11/23 14:00:03;;;;;;;13.60;9.07;;;;;;;;;;5004677;28;20038;-58
2021/11/23 14:02:48;;;;;;;13.30;8.40;;;;;;;;;;5007149;28;20030;-58
2021/11/23 14:05:47;;;;;;;12.40;8.43;;;;;;;;;;5004954;28;20064;-57
2021/11/23 14:08:23;;;;;;;12.70;7.68;;;;;;;;;;4994860;28;20092;-57
2021/11/23 14:10:56;;;;;;;11.73;7.53;;;;;;;;;;5004356;28;20033;-57
2021/11/23 14:13:24;;;;;;;13.45;7.93;;;;;;;;;;5003531;28;20430;-57
2021/11/23 14:15:52;;;;;;;11.73;6.90;;;;;;;;;;5006525;28;20034;-57
2021/11/23 14:18:17;;;;;;;10.05;7.03;;;;;;;;;;4999733;28;20167;-56
2021/11/23 14:20:51;;;;;;;13.10;8.23;;;;;;;;;;4997691;28;20130;-57
2021/11/23 14:23:22;;;;;;;15.25;8.75;;;;;;;;;;4999854;28;20115;-56
2021/11/23 14:26:21;;;;;;;12.93;8.15;;;;;;;;;;5004146;28;20329;-57
2021/11/23 14:28:49;;;;;;;11.02;7.05;;;;;;;;;;4996086;28;20049;-58
2021/11/23 14:31:18;;;;;;;11.38;6.95;;;;;;;;;;5005636;28;20551;-57
2021/11/23 14:33:45;;;;;;;11.23;7.30;;;;;;;;;;5001433;28;20480;-58
2021/11/23 14:36:32;;;;;;;13.45;7.40;;;;;;;;;;5003503;28;20503;-56